createdAt,value
2019-02-26T00:02:02.531Z,9.07
2019-02-26T00:04:35.056Z,12.33
2019-02-26T00:07:05.051Z,8.90
2019-02-26T00:09:36.718Z,9.77
2019-02-26T00:12:07.062Z,11.97
2019-02-26T00:14:37.351Z,11.37
2019-02-26T00:17:10.590Z,10.50
2019-02-26T00:19:39.643Z,8.13
2019-02-26T00:22:12.156Z,9.47
2019-02-26T00:24:44.315Z,9.50
2019-02-26T00:27:15.226Z,10.73
2019-02-26T00:29:46.360Z,9.93
2019-02-26T00:32:18.565Z,9.37
2019-02-26T00:34:48.876Z,11.00
2019-02-26T00:37:22.236Z,8.37
2019-02-26T00:39:54.139Z,9.13
2019-02-26T00:42:26.371Z,9.07
2019-02-26T00:44:58.257Z,8.07
2019-02-26T00:47:33.853Z,11.53
2019-02-26T00:50:04.684Z,9.83
2019-02-26T00:52:39.172Z,10.10
2019-02-26T00:55:12.459Z,11.90
2019-02-26T00:57:43.189Z,10.97
2019-02-26T01:00:14.975Z,13.47
2019-02-26T01:02:45.982Z,14.40
2019-02-26T01:05:16.980Z,16.37
2019-02-26T01:07:50.225Z,19.57
2019-02-26T01:10:21.232Z,15.83
2019-02-26T01:12:52.366Z,15.70
2019-02-26T01:15:23.076Z,13.37
2019-02-26T01:17:54.969Z,14.07
2019-02-26T01:20:27.415Z,16.47
2019-02-26T01:22:58.110Z,16.50
2019-02-26T01:25:29.424Z,13.40
2019-02-26T01:28:00.463Z,13.43
2019-02-26T01:30:33.790Z,12.80
2019-02-26T01:33:08.051Z,9.73
2019-02-26T01:35:41.773Z,10.60
2019-02-26T01:38:12.611Z,8.10
2019-02-26T01:40:46.078Z,10.40
2019-02-26T01:43:17.250Z,9.50
2019-02-26T01:45:48.643Z,10.00
2019-02-26T01:48:19.897Z,11.97
2019-02-26T01:50:52.220Z,9.10
2019-02-26T01:53:23.716Z,14.23
2019-02-26T01:55:54.510Z,12.33
2019-02-26T01:58:24.932Z,12.23
2019-02-26T02:00:55.974Z,9.20
2019-02-26T02:03:28.026Z,9.70
2019-02-26T02:05:58.532Z,11.07
2019-02-26T02:08:28.912Z,10.63
2019-02-26T02:11:01.793Z,9.40
2019-02-26T02:13:33.131Z,10.60
2019-02-26T02:16:04.469Z,8.40
2019-02-26T02:18:43.758Z,11.40
2019-02-26T02:21:12.624Z,9.03
2019-02-26T02:23:47.073Z,7.80
2019-02-26T02:26:18.801Z,10.00
2019-02-26T02:28:49.847Z,10.30
2019-02-26T02:31:22.006Z,10.87
2019-02-26T02:33:53.469Z,11.00
2019-02-26T02:36:26.442Z,11.30
2019-02-26T02:38:56.344Z,11.40
2019-02-26T02:41:28.216Z,13.17
2019-02-26T02:43:59.437Z,9.93
2019-02-26T02:46:29.847Z,10.80
2019-02-26T02:49:00.081Z,11.30
2019-02-26T02:51:31.483Z,11.43
2019-02-26T02:54:02.696Z,10.93
2019-02-26T02:56:34.052Z,11.53
2019-02-26T02:59:05.960Z,14.47
2019-02-26T03:01:36.955Z,15.03
2019-02-26T03:04:07.238Z,11.33
2019-02-26T03:06:38.673Z,11.87
2019-02-26T03:09:19.733Z,11.07
2019-02-26T03:11:52.464Z,13.07
2019-02-26T03:14:22.394Z,14.83
2019-02-26T03:16:53.470Z,14.20
2019-02-26T03:19:24.146Z,10.77
2019-02-26T03:21:55.047Z,11.07
2019-02-26T03:24:28.377Z,10.97
2019-02-26T03:26:58.171Z,11.40
2019-02-26T03:29:28.909Z,15.03
2019-02-26T03:31:59.543Z,11.20
2019-02-26T03:34:29.880Z,12.30
2019-02-26T03:37:03.103Z,12.33
2019-02-26T03:39:32.787Z,11.80
2019-02-26T03:42:03.190Z,11.37
2019-02-26T03:44:34.046Z,10.73
2019-02-26T03:47:04.454Z,15.23
2019-02-26T03:49:35.266Z,11.13
2019-02-26T03:52:05.719Z,12.97
2019-02-26T03:54:39.824Z,11.67
2019-02-26T03:57:09.040Z,12.10
2019-02-26T03:59:40.149Z,9.77
2019-02-26T04:02:11.871Z,10.33
2019-02-26T04:04:42.627Z,12.30
2019-02-26T04:07:13.012Z,11.23
2019-02-26T04:09:44.429Z,12.00
2019-02-26T04:12:18.312Z,11.20
2019-02-26T04:14:47.856Z,12.10
2019-02-26T04:17:25.384Z,12.63
2019-02-26T04:19:54.850Z,12.60
2019-02-26T04:22:42.285Z,11.33
2019-02-26T04:25:25.652Z,13.07
2019-02-26T04:28:27.389Z,12.37
2019-02-26T04:31:32.061Z,13.43
2019-02-26T04:35:02.828Z,13.87
2019-02-26T04:38:20.743Z,14.03
2019-02-26T04:41:20.333Z,12.60
2019-02-26T04:44:39.362Z,14.10
2019-02-26T04:47:17.738Z,13.10
2019-02-26T04:49:48.451Z,12.67
2019-02-26T04:52:19.287Z,15.87
2019-02-26T04:54:59.242Z,17.57
2019-02-26T04:57:29.958Z,16.93
2019-02-26T05:00:01.238Z,15.67
2019-02-26T05:02:32.963Z,12.60
2019-02-26T05:05:02.677Z,11.43
2019-02-26T05:07:35.572Z,13.90
2019-02-26T05:10:06.799Z,14.97
2019-02-26T05:12:39.997Z,13.13
2019-02-26T05:15:13.895Z,16.70
2019-02-26T05:17:42.481Z,16.10
2019-02-26T05:20:16.618Z,15.83
2019-02-26T05:22:47.328Z,14.47
2019-02-26T05:25:19.755Z,13.73
2019-02-26T05:27:50.955Z,15.80
2019-02-26T05:30:22.407Z,15.37
2019-02-26T05:32:57.146Z,13.60
2019-02-26T05:35:25.809Z,15.57
2019-02-26T05:38:00.580Z,15.70
2019-02-26T05:40:29.788Z,16.40
2019-02-26T05:43:01.845Z,14.83
2019-02-26T05:45:35.566Z,14.60
2019-02-26T05:48:16.195Z,16.33
2019-02-26T05:50:46.076Z,14.40
2019-02-26T05:53:17.686Z,17.77
2019-02-26T05:55:50.667Z,17.07
2019-02-26T05:58:21.606Z,17.00
2019-02-26T06:00:54.072Z,23.63
2019-02-26T06:03:24.973Z,20.63
2019-02-26T06:06:03.808Z,18.47
2019-02-26T06:08:36.313Z,20.10
2019-02-26T06:11:07.163Z,18.37
2019-02-26T06:13:43.234Z,18.87
2019-02-26T06:16:13.849Z,21.97
2019-02-26T06:18:46.527Z,23.00
2019-02-26T06:21:20.956Z,17.80
2019-02-26T06:23:56.162Z,21.67
2019-02-26T06:26:32.644Z,17.53
2019-02-26T06:29:01.711Z,22.93
2019-02-26T06:31:33.222Z,17.00
2019-02-26T06:34:08.122Z,16.87
2019-02-26T06:36:36.831Z,22.37
2019-02-26T06:39:07.448Z,19.13
2019-02-26T06:41:40.155Z,20.17
2019-02-26T06:44:11.701Z,19.30
2019-02-26T06:46:43.986Z,21.30
2019-02-26T06:49:17.875Z,23.63
2019-02-26T06:51:50.249Z,21.03
2019-02-26T06:54:22.684Z,19.67
2019-02-26T06:56:56.686Z,22.70
2019-02-26T06:59:33.862Z,21.33
2019-02-26T07:02:06.202Z,24.43
2019-02-26T07:04:41.588Z,22.17
2019-02-26T07:07:14.473Z,22.50
2019-02-26T07:09:49.941Z,22.30
2019-02-26T07:12:24.090Z,24.73
2019-02-26T07:14:58.133Z,20.77
2019-02-26T07:17:33.713Z,22.20
2019-02-26T07:20:09.689Z,23.87
2019-02-26T07:22:41.564Z,19.97
2019-02-26T07:25:18.159Z,19.47
2019-02-26T07:27:48.138Z,21.90
2019-02-26T07:30:19.172Z,22.67
2019-02-26T07:32:51.391Z,20.37
2019-02-26T07:35:24.475Z,22.23
2019-02-26T07:37:56.727Z,22.90
2019-02-26T07:40:32.913Z,24.70
2019-02-26T07:46:33.190Z,31.53
2019-02-26T07:49:09.238Z,22.47
2019-02-26T07:51:43.120Z,22.73
2019-02-26T07:54:13.390Z,20.60
2019-02-26T07:56:45.631Z,20.10
2019-02-26T07:59:17.280Z,20.37
2019-02-26T08:01:49.708Z,21.10
2019-02-26T08:04:20.461Z,22.47
2019-02-26T08:06:55.002Z,20.07
2019-02-26T08:09:30.796Z,22.03
2019-02-26T08:12:04.414Z,24.97
2019-02-26T08:14:35.275Z,19.23
2019-02-26T08:17:10.187Z,20.33
2019-02-26T08:19:46.594Z,17.83
2019-02-26T08:22:15.928Z,19.67
2019-02-26T08:24:48.625Z,19.43
2019-02-26T08:27:20.057Z,22.97
2019-02-26T08:29:51.698Z,19.73
2019-02-26T08:32:26.199Z,21.20
2019-02-26T08:34:59.982Z,16.47
2019-02-26T08:37:32.789Z,20.30
2019-02-26T08:40:03.432Z,19.73
2019-02-26T08:42:34.554Z,21.57
2019-02-26T08:45:12.054Z,21.07
2019-02-26T08:47:44.345Z,23.13
2019-02-26T08:50:15.663Z,21.43
2019-02-26T08:52:49.430Z,23.00
2019-02-26T08:55:23.894Z,21.63
2019-02-26T08:58:05.156Z,19.43
2019-02-26T09:00:36.425Z,24.40
2019-02-26T09:06:11.006Z,22.90
2019-02-26T09:08:35.406Z,23.23
2019-02-26T09:11:14.106Z,21.30
2019-02-26T09:13:46.600Z,25.47
2019-02-26T09:16:17.519Z,21.63
2019-02-26T09:18:50.678Z,22.40
2019-02-26T09:21:24.173Z,21.97
2019-02-26T09:23:57.066Z,23.50
2019-02-26T09:26:27.943Z,21.23
2019-02-26T09:28:58.591Z,23.53
2019-02-26T09:31:34.070Z,22.30
2019-02-26T09:34:05.061Z,22.60
2019-02-26T09:36:37.069Z,21.60
2019-02-26T09:39:10.695Z,24.00
2019-02-26T09:41:43.352Z,24.37
2019-02-26T09:44:23.909Z,24.67
2019-02-26T09:47:17.798Z,22.70
2019-02-26T09:49:49.909Z,21.63
2019-02-26T09:52:24.713Z,20.40
2019-02-26T09:54:55.949Z,20.83
2019-02-26T09:57:28.233Z,25.63
2019-02-26T10:00:05.566Z,23.03
2019-02-26T10:02:36.722Z,25.00
2019-02-26T10:05:11.204Z,19.80
2019-02-26T10:07:44.310Z,22.17
2019-02-26T10:10:18.533Z,20.23
2019-02-26T10:12:53.215Z,23.60
2019-02-26T10:15:24.512Z,19.13
2019-02-26T10:18:00.864Z,22.27
2019-02-26T10:20:31.760Z,22.77
2019-02-26T10:23:06.321Z,22.70
2019-02-26T10:25:39.257Z,23.73
2019-02-26T10:28:26.377Z,29.20
2019-02-26T10:31:03.234Z,20.90
2019-02-26T10:33:35.950Z,21.37
2019-02-26T10:36:07.910Z,21.80
2019-02-26T10:38:40.866Z,21.23
2019-02-26T10:41:18.795Z,22.63
2019-02-26T10:43:52.219Z,22.83
2019-02-26T10:46:24.727Z,20.37
2019-02-26T10:49:00.036Z,24.30
2019-02-26T10:51:32.884Z,19.40
2019-02-26T10:54:08.260Z,23.63
2019-02-26T10:56:42.076Z,20.27
2019-02-26T10:59:15.787Z,19.50
2019-02-26T11:01:51.671Z,20.27
2019-02-26T11:04:21.779Z,18.93
2019-02-26T11:06:52.762Z,22.83
2019-02-26T11:09:29.344Z,21.63
2019-02-26T11:12:00.800Z,25.90
2019-02-26T11:14:34.013Z,19.80
2019-02-26T11:17:07.270Z,22.47
2019-02-26T11:19:41.206Z,20.93
2019-02-26T11:22:18.711Z,19.63
2019-02-26T11:24:53.295Z,22.37
2019-02-26T11:27:25.212Z,18.30
2019-02-26T11:29:59.515Z,19.53
2019-02-26T11:32:32.630Z,18.50
2019-02-26T11:35:02.944Z,22.13
2019-02-26T11:37:33.405Z,19.37
2019-02-26T11:40:05.540Z,18.53
2019-02-26T11:42:39.909Z,20.70
2019-02-26T11:45:17.495Z,19.07
2019-02-26T11:47:51.497Z,20.50
2019-02-26T11:50:28.774Z,19.47
2019-02-26T11:53:24.756Z,19.33
2019-02-26T11:58:47.985Z,17.70
2019-02-26T12:01:19.226Z,18.17
2019-02-26T12:03:50.906Z,19.43
2019-02-26T12:06:23.173Z,16.30
2019-02-26T12:08:55.819Z,16.47
2019-02-26T12:11:27.914Z,16.50
2019-02-26T12:14:01.673Z,17.87
2019-02-26T12:16:34.408Z,17.33
2019-02-26T12:19:06.115Z,18.03
2019-02-26T12:21:39.871Z,16.27
2019-02-26T12:24:12.624Z,17.73
2019-02-26T12:26:45.312Z,15.47
2019-02-26T12:29:18.770Z,14.50
2019-02-26T12:31:50.252Z,14.47
2019-02-26T12:34:23.870Z,14.20
2019-02-26T12:36:57.204Z,15.70
2019-02-26T12:39:29.134Z,15.53
2019-02-26T12:42:01.633Z,14.20
2019-02-26T12:44:35.498Z,14.67
2019-02-26T12:47:07.265Z,16.30
2019-02-26T12:49:39.136Z,11.63
2019-02-26T12:52:15.179Z,11.23
2019-02-26T12:54:47.845Z,10.93
2019-02-26T12:57:28.894Z,10.97
2019-02-26T12:59:54.988Z,10.60
2019-02-26T13:02:30.238Z,11.30
2019-02-26T13:05:03.330Z,11.30
2019-02-26T13:07:34.410Z,12.97
2019-02-26T13:10:08.883Z,9.20
2019-02-26T13:12:39.680Z,9.47
2019-02-26T13:15:12.880Z,10.50
2019-02-26T13:17:44.503Z,10.87
2019-02-26T13:20:18.143Z,10.60
2019-02-26T13:22:48.913Z,10.23
2019-02-26T13:25:21.424Z,9.57
2019-02-26T13:27:55.202Z,18.47
2019-02-26T13:30:28.126Z,17.07
2019-02-26T13:33:00.978Z,14.60
2019-02-26T13:35:42.071Z,15.37
2019-02-26T13:38:12.927Z,14.80
2019-02-26T13:40:45.128Z,18.57
2019-02-26T13:43:16.425Z,18.27
2019-02-26T13:45:47.360Z,14.73
2019-02-26T13:48:23.896Z,13.93
2019-02-26T13:50:57.295Z,15.70
2019-02-26T13:53:31.195Z,13.60
2019-02-26T13:56:03.464Z,15.97
2019-02-26T13:58:34.127Z,17.07
2019-02-26T14:01:07.420Z,17.57
2019-02-26T14:03:39.369Z,15.70
2019-02-26T14:06:10.597Z,16.63
2019-02-26T14:08:41.369Z,15.33
2019-02-26T14:11:13.042Z,13.73
2019-02-26T14:13:43.741Z,14.10
2019-02-26T14:16:15.888Z,15.97
2019-02-26T14:18:48.218Z,13.87
2019-02-26T14:21:20.133Z,15.60
2019-02-26T14:23:50.671Z,15.77
2019-02-26T14:26:21.946Z,14.17
2019-02-26T14:28:52.729Z,16.43
2019-02-26T14:31:23.553Z,13.50
2019-02-26T14:33:54.933Z,18.10
2019-02-26T14:36:29.731Z,13.43
2019-02-26T14:39:01.994Z,16.27
2019-02-26T14:41:37.055Z,13.67
2019-02-26T14:44:07.664Z,14.57
2019-02-26T14:46:38.552Z,13.73
2019-02-26T14:49:09.141Z,17.23
2019-02-26T14:51:40.043Z,16.77
2019-02-26T14:54:13.658Z,17.00
2019-02-26T14:56:45.470Z,16.20
2019-02-26T14:59:16.189Z,17.73
2019-02-26T15:01:48.822Z,13.63
2019-02-26T15:04:19.375Z,18.30
2019-02-26T15:06:50.745Z,15.53
2019-02-26T15:09:21.546Z,17.60
2019-02-26T15:11:55.674Z,16.13
2019-02-26T15:14:26.514Z,14.10
2019-02-26T15:16:57.983Z,15.73
2019-02-26T15:19:28.592Z,13.50
2019-02-26T15:22:01.994Z,14.77
2019-02-26T15:24:42.442Z,13.97
2019-02-26T15:27:13.605Z,14.33
2019-02-26T15:29:49.212Z,15.40
2019-02-26T15:32:24.166Z,14.10
2019-02-26T15:35:02.035Z,16.77
2019-02-26T15:37:43.058Z,14.30
2019-02-26T15:40:15.847Z,14.93
2019-02-26T15:42:53.019Z,17.05
2019-02-26T15:49:07.673Z,17.98
2019-02-26T15:51:43.782Z,16.02
2019-02-26T15:54:16.452Z,15.75
2019-02-26T15:56:47.978Z,16.42
2019-02-26T15:59:20.579Z,16.23
2019-02-26T16:01:55.311Z,16.70
2019-02-26T16:04:31.797Z,18.23
2019-02-26T16:07:09.099Z,16.45
2019-02-26T16:09:45.229Z,17.30
2019-02-26T16:12:15.951Z,18.37
2019-02-26T16:14:48.103Z,17.47
2019-02-26T16:17:20.834Z,16.67
2019-02-26T16:19:51.421Z,17.07
2019-02-26T16:22:21.786Z,18.23
2019-02-26T16:24:54.504Z,16.80
2019-02-26T16:27:25.365Z,18.57
2019-02-26T16:29:56.106Z,20.00
2019-02-26T16:32:27.084Z,20.60
2019-02-26T16:35:06.323Z,21.60
2019-02-26T16:37:41.543Z,19.30
2019-02-26T16:40:15.088Z,18.70
2019-02-26T16:42:46.574Z,19.30
2019-02-26T16:45:18.869Z,18.30
2019-02-26T16:47:50.642Z,19.47
2019-02-26T16:50:22.450Z,20.53
2019-02-26T16:52:53.418Z,20.83
2019-02-26T16:55:24.419Z,20.70
2019-02-26T16:57:56.019Z,20.50
2019-02-26T17:00:27.750Z,20.60
2019-02-26T17:03:00.749Z,19.57
2019-02-26T17:05:32.848Z,19.93
2019-02-26T17:08:09.083Z,23.43
2019-02-26T17:10:40.065Z,19.63
2019-02-26T17:13:13.073Z,20.57
2019-02-26T17:15:44.932Z,19.10
2019-02-26T17:18:17.131Z,25.17
2019-02-26T17:20:49.082Z,21.70
2019-02-26T17:23:44.811Z,21.37
2019-02-26T17:26:18.522Z,19.90
2019-02-26T17:28:52.612Z,21.27
2019-02-26T17:31:23.561Z,19.93
2019-02-26T17:33:57.736Z,23.90
2019-02-26T17:36:32.642Z,18.40
2019-02-26T17:39:04.990Z,21.57
2019-02-26T17:41:37.805Z,19.43
2019-02-26T17:44:08.965Z,20.07
2019-02-26T17:46:41.019Z,20.07
2019-02-26T17:49:15.787Z,19.80
2019-02-26T17:51:49.240Z,17.27
2019-02-26T17:54:21.095Z,17.67
2019-02-26T17:56:52.048Z,18.37
2019-02-26T17:59:25.409Z,20.40
2019-02-26T18:01:57.320Z,20.13
2019-02-26T18:04:31.508Z,16.93
2019-02-26T18:07:01.484Z,17.33
2019-02-26T18:09:34.555Z,17.93
2019-02-26T18:12:05.330Z,17.13
2019-02-26T18:14:39.741Z,14.63
2019-02-26T18:17:10.598Z,19.60
2019-02-26T18:19:42.960Z,17.40
2019-02-26T18:22:15.625Z,15.67
2019-02-26T18:24:49.404Z,17.00
2019-02-26T18:27:21.373Z,14.93
2019-02-26T18:29:54.052Z,14.40
2019-02-26T18:32:33.985Z,14.47
2019-02-26T18:35:04.333Z,15.10
2019-02-26T18:37:46.180Z,13.67
2019-02-26T18:40:10.858Z,15.07
2019-02-26T18:42:41.932Z,13.70
2019-02-26T18:45:16.004Z,14.27
2019-02-26T18:47:47.677Z,15.10
2019-02-26T18:50:21.495Z,16.40
2019-02-26T18:52:52.524Z,14.87
2019-02-26T18:55:27.964Z,13.93
2019-02-26T18:57:57.068Z,15.20
2019-02-26T19:00:28.000Z,14.27
2019-02-26T19:02:58.620Z,14.37
2019-02-26T19:05:32.592Z,13.07
2019-02-26T19:08:05.565Z,15.33
2019-02-26T19:10:35.900Z,16.73
2019-02-26T19:13:05.957Z,16.00
2019-02-26T19:15:36.871Z,16.40
2019-02-26T19:18:07.881Z,15.13
2019-02-26T19:20:39.921Z,19.40
2019-02-26T19:23:10.041Z,16.23
2019-02-26T19:25:49.492Z,14.50
2019-02-26T19:28:25.860Z,14.83
2019-02-26T19:30:56.562Z,14.33
2019-02-26T19:33:29.134Z,13.73
2019-02-26T19:36:00.362Z,12.70
2019-02-26T19:38:32.865Z,15.17
2019-02-26T19:41:07.929Z,15.00
2019-02-26T19:43:38.359Z,13.13
2019-02-26T19:46:08.747Z,14.73
2019-02-26T19:48:40.437Z,15.53
2019-02-26T19:51:13.970Z,15.37
2019-02-26T19:53:44.729Z,20.00
2019-02-26T19:56:17.197Z,19.13
2019-02-26T19:58:49.092Z,18.30
2019-02-26T20:01:20.160Z,18.73
2019-02-26T20:03:53.208Z,17.57
2019-02-26T20:06:28.870Z,17.07
2019-02-26T20:08:59.415Z,17.53
2019-02-26T20:11:30.656Z,14.77
2019-02-26T20:14:04.738Z,19.63
2019-02-26T20:16:34.996Z,18.63
2019-02-26T20:19:06.519Z,19.00
2019-02-26T20:21:39.953Z,17.47
2019-02-26T20:24:16.322Z,15.67
2019-02-26T20:26:51.762Z,16.97
2019-02-26T20:29:24.252Z,17.77
2019-02-26T20:31:58.003Z,16.70
2019-02-26T20:34:28.089Z,15.53
2019-02-26T20:37:04.778Z,15.10
2019-02-26T20:39:40.406Z,16.43
2019-02-26T20:42:10.496Z,16.13
2019-02-26T20:44:45.218Z,16.07
2019-02-26T20:47:16.417Z,18.63
2019-02-26T20:49:47.171Z,17.50
2019-02-26T20:52:18.464Z,16.40
2019-02-26T20:54:49.826Z,19.63
2019-02-26T20:57:20.825Z,17.50
2019-02-26T20:59:55.614Z,19.03
2019-02-26T21:02:30.819Z,17.63
2019-02-26T21:05:04.511Z,20.67
2019-02-26T21:07:34.738Z,17.60
2019-02-26T21:10:06.303Z,19.13
2019-02-26T21:12:37.257Z,19.30
2019-02-26T21:15:26.033Z,19.00
2019-02-26T21:17:58.027Z,17.17
2019-02-26T21:20:30.547Z,22.03
2019-02-26T21:23:03.314Z,20.53
2019-02-26T21:25:34.016Z,22.30
2019-02-26T21:28:05.943Z,20.83
2019-02-26T21:30:37.686Z,19.93
2019-02-26T21:33:08.657Z,16.93
2019-02-26T21:35:39.394Z,21.13
2019-02-26T21:38:13.069Z,18.83
2019-02-26T21:40:43.361Z,21.63
2019-02-26T21:43:14.210Z,21.27
2019-02-26T21:45:49.183Z,21.23
2019-02-26T21:48:17.336Z,17.67
2019-02-26T21:50:48.415Z,19.23
2019-02-26T21:53:19.322Z,18.57
2019-02-26T21:55:49.884Z,18.40
2019-02-26T21:58:22.083Z,22.23
2019-02-26T22:00:53.740Z,19.57
2019-02-26T22:03:25.336Z,18.97
2019-02-26T22:06:04.789Z,17.97
2019-02-26T22:08:29.511Z,18.23
2019-02-26T22:11:00.582Z,19.70
2019-02-26T22:13:32.729Z,19.67
2019-02-26T22:16:05.248Z,18.40
2019-02-26T22:18:35.961Z,19.23
2019-02-26T22:21:07.818Z,19.73
2019-02-26T22:23:39.496Z,19.77
2019-02-26T22:26:10.209Z,20.23
2019-02-26T22:28:42.623Z,19.93
2019-02-26T22:31:13.578Z,20.07
2019-02-26T22:33:46.254Z,18.20
2019-02-26T22:36:16.600Z,21.33
2019-02-26T22:38:49.142Z,22.00
2019-02-26T22:41:19.853Z,19.87
2019-02-26T22:43:51.923Z,21.03
2019-02-26T22:46:22.459Z,20.57
2019-02-26T22:48:53.312Z,18.83
2019-02-26T22:51:23.905Z,18.60
2019-02-26T22:53:54.990Z,19.07
2019-02-26T22:56:27.227Z,20.80
2019-02-26T22:58:58.053Z,21.27
2019-02-26T23:01:36.663Z,17.40
2019-02-26T23:04:08.901Z,18.43
2019-02-26T23:06:39.530Z,16.60
2019-02-26T23:09:10.930Z,18.87
2019-02-26T23:11:43.275Z,18.40
2019-02-26T23:14:15.266Z,21.13
2019-02-26T23:16:45.225Z,18.90
2019-02-26T23:19:15.621Z,20.63
2019-02-26T23:21:49.811Z,21.37
2019-02-26T23:24:19.316Z,19.20
2019-02-26T23:26:49.867Z,20.53
2019-02-26T23:29:20.580Z,20.53
2019-02-26T23:31:53.805Z,21.57
2019-02-26T23:34:24.410Z,19.53
2019-02-26T23:36:55.054Z,17.63
2019-02-26T23:39:25.673Z,19.30
2019-02-26T23:41:57.176Z,16.57
2019-02-26T23:44:28.150Z,19.20
2019-02-26T23:47:01.695Z,16.30
2019-02-26T23:49:31.698Z,19.33
2019-02-26T23:52:04.067Z,30.20
2019-02-26T23:54:34.571Z,20.07
2019-02-26T23:57:05.482Z,19.63
2019-02-26T23:59:37.634Z,16.77
